LiveATC.Net - Listen to live air traffic control over the Internet! Contact for advertising information

ICAO: UNKL  IATA: KJA   Airport: Yemelyanovo International Airport
City: Krasnoyarsk
Country: Russia   Continent: Asia
UNKL METAR Weather: UNKL 090600Z 06002MPS 360V110 CAVOK 14/01 Q1018 R29/CLRD65 NOSIG RMK QFE738
UNKL Flight Activity (FlightAware)
UNKL Gnd/Twr/App
Feed Status: UP   Listeners: 2
Listen right in your browser - requires Flash (in browser, requires Flash)
Click here to listen with your own player (launches your MP3 player)
UNKL Gnd/Twr/App Audio Archives
Krasnoyarsk Approach127.700
Krasnoyarsk Ground121.700
Krasnoyarsk Krug122.000
Krasnoyarsk Tower118.300


Unauthorized use prohibited. See Terms of Service

Find LiveATC Audio Streams

Airport/ARTCC Code

(e.g., 124.400, 128.75)
Site-wide search

Browse LiveATC Feeds
LiveATC Coverage Map
Top 50 LiveATC Feeds
Bad Weather Areas

Offer a LiveATC Feed
Press Inquiries

LiveATC on iPhone
LiveATC on Android

Windows Phone
Windows 8/10

LiveATC Mobile
(Mobile browser)

ATC Audio Archives
Interesting Recordings

LiveATC Forums

Home Page
Make a Donation
LiveATC Bookstore

Terms of Use
Privacy Policy

ATC/Radar Sites
U.S. ARTCC Freqs
Canadian Air Freqs


FAA Airport Status
Nat'l Airspace Status
Arrival Demand Charts

Server Software By:

Please make a donation to help us keep growing!